x

Mid Gulf - 180 Nm South Of Southwest Pass, La (42001) Wave Buoy

5:50pm - Mon 26th Jan 2015 All times are UTC.

  • Sig Wave height 9.5ft
  • Peak Period 9s
  • Average Period 7s
  • Wind
    20mph, 27mph gusts
  • Sea Temp 74°f
  • Air Temp 67°f
  • Sea Pressure 1020.7mb

More Historic Weather Station data

Upgrade to MSW Pro to gain access to the past 30 days of data for over 8000 Wavebouys and Weather Stations around the globe.

Join Pro

Comparision Forecast

View Surf forecast
   
Mon 01/26 5:50pm 9.5ft 9s 7s 20 27 mph 1020.7mb 74f 67f
4:50pm 11ft 9s 7s 22 29 mph 1021.5mb 75f 67f
3:50pm 10ft 9s 7s 22 29 mph 1021.4mb 75f 67f
2:50pm 11ft 9s 7s 22 29 mph 1020.7mb 76f 67f
1:50pm 12ft 9s 7s 22 29 mph 1020mb 76f 67f
12:50pm 11.5ft 9s 7s 25 31 mph 1019.3mb 76f 68f
11:50am 10.5ft 9s 7s 25 31 mph 1018.7mb 76f 69f
10:50am 10ft 8s 7s 27 31 mph 1018mb 76f 71f
9:50am 8ft 8s 6s 25 31 mph 1017.8mb 76f 71f
8:50am 8ft 7s 6s 29 36 mph 1017.6mb 77f 71f
7:50am 7.5ft 7s 6s 27 31 mph 1017.9mb 77f 71f
6:50am 7ft 7s 6s 25 29 mph 1018.1mb 77f 71f
5:50am 5.5ft 7s 6s 22 29 mph 1018.1mb 77f 71f
4:50am 4.5ft 7s 5s 22 29 mph 1018.6mb 77f 70f
3:50am 4.5ft 6s 6s 18 27 mph 1018.3mb 77f 70f
2:50am 4.5ft 7s 5s 18 22 mph 1017.9mb 77f 70f
1:50am 4ft 6s 5s 20 25 mph 1018.3mb 77f 69f
12:50am 3.5ft 6s 5s 18 25 mph 1018.2mb 77f 69f
Sun 01/25 11:50pm 4ft 7s 5s 16 20 mph 1017.7mb 77f 69f
10:50pm 3.5ft 7s 5s 16 20 mph 1017.4mb 77f 69f
9:50pm 3.5ft 6s 5s 18 22 mph 1017.8mb 77f 69f
8:50pm 4ft 7s 6s 20 27 mph 1019.1mb 77f 69f
7:50pm 3.5ft 6s 6s 16 20 mph 1018.3mb 77f 69f
6:50pm 3.5ft 7s 6s 13 18 mph 1018.2mb 77f 68f
5:50pm 4ft 7s 6s 9 13 mph 1019.1mb 76f 68f
4:50pm 4.5ft 7s 6s 11 16 mph 1019.7mb 75f 67f
3:50pm 4.5ft 7s 6s 9 13 mph 1020mb 75f 67f
2:50pm 4.5ft 7s 6s 13 20 mph 1020.1mb 75f 67f
1:50pm 4.5ft 8s 6s 9 16 mph 1020.2mb 75f 67f
12:50pm 5ft 7s 6s 11 18 mph 1019.9mb 76f 67f
11:50am 5.5ft 8s 6s 13 18 mph 1019.6mb 76f 66f
10:50am 5ft 8s 6s 11 18 mph 1019.4mb 76f 66f
9:50am 5.5ft 8s 6s 13 18 mph 1019.6mb 76f 66f
8:50am 6ft 8s 6s 9 13 mph 1020mb 76f 66f
7:50am 7ft 8s 7s 9 13 mph 1020.4mb 77f 65f
6:50am 6.5ft 8s 7s 11 18 mph 1020.3mb 77f 65f
5:50am 7.5ft 8s 7s 4 9 mph 1020.6mb 77f 64f
4:50am 7.5ft 8s 7s 7 11 mph 1021.1mb 77f 64f
3:50am 7.5ft 8s 7s 9 16 mph 1021.2mb 77f 64f
2:50am 8ft 9s 7s 9 16 mph 1021.5mb 78f 64f
1:50am 9ft 9s 7s 11 18 mph 1021.5mb 78f 64f
12:50am 9ft 9s 7s 13 18 mph 1021mb 78f 64f
Sat 01/24 11:50pm 10ft 9s 8s 13 18 mph 1020.6mb 78f 63f
10:50pm 9ft 10s 7s 16 20 mph 1020.5mb 78f 64f
9:50pm 11ft 9s 8s 13 22 mph 1020.4mb 78f 63f
8:50pm 10ft 10s 8s 16 22 mph 1020.6mb 78f 63f
7:50pm 10ft 10s 8s 16 22 mph 1021mb 78f 62f
6:50pm 10ft 9s 8s 18 25 mph 1021.6mb 78f 62f
5:50pm 12ft 10s 8s 18 25 mph 1022.4mb 78f 63f
4:50pm 12ft 10s 8s 20 27 mph 1022.9mb 78f 63f
3:50pm 13.5ft 10s 8s 22 29 mph 1022.7mb 78f 63f
2:50pm 13ft 10s 8s 25 34 mph 1022mb 78f 63f
1:50pm 13ft 10s 8s 25 34 mph 1021mb 78f 64f
12:50pm 11.5ft 10s 8s 27 36 mph 1020mb 78f 64f
11:50am 13ft 9s 8s 22 31 mph 1019.5mb 78f 64f
10:50am 13ft 10s 8s 27 36 mph 1018.5mb 78f 65f
9:50am 13.5ft 10s 8s 25 31 mph 1018.4mb 78f 66f
8:50am 13ft 10s 8s 27 34 mph 1018.1mb 78f 66f
7:50am 13ft 10s 8s 29 38 mph 1017.9mb 78f 67f
6:50am 14ft 10s 8s 29 36 mph 1017.4mb 78f 67f
5:50am 11ft 9s 7s 29 36 mph 1017.1mb 78f 68f
4:50am 10ft 9s 7s 27 34 mph 1017.4mb 78f 67f
3:50am 9.5ft 8s 7s 25 31 mph 1017.2mb 78f 67f
2:50am 8ft 7s 7s 27 34 mph 1016.5mb 78f 67f
1:50am 6.5ft 7s 6s 27 34 mph 1015.8mb 78f 68f
12:50am 6ft 7s 6s 25 29 mph 1015.2mb 78f 69f
Fri 01/23 11:50pm 5.5ft 7s 6s 25 29 mph 1014.3mb 78f 70f
10:50pm 6ft 7s 6s 20 25 mph 1013.6mb 78f 71f
9:50pm 6.5ft 7s 6s 20 25 mph 1012.9mb 78f 72f
8:50pm 6ft 7s 6s 22 29 mph 1012.5mb 78f 73f
7:50pm 7ft 6s 6s 25 29 mph 1012.2mb 78f 73f
6:50pm 6.5ft 7s 5s 20 25 mph 1012.5mb 78f 75f
5:50pm 6.5ft 6s 5s 25 29 mph 1012.9mb 78f 77f
4:50pm 6.5ft 7s 5s 27 31 mph 1013.2mb 78f 78f
3:50pm 7ft 7s 5s 20 25 mph 1013.5mb 78f 76f
2:50pm 7ft 6s 5s 27 36 mph 1012.5mb 78f 78f
1:50pm 6ft 7s 5s 29 36 mph 1011.7mb 78f 78f
12:50pm 6ft 7s 5s 25 31 mph 1012mb 78f 78f
11:50am 6ft 7s 5s 25 31 mph 1011.9mb 78f 78f
10:50am 5.5ft 6s 5s 25 29 mph 1011.9mb 78f 79f
9:50am 6ft 6s 5s 25 29 mph 1012.1mb 78f 78f
8:50am 6ft 6s 5s 25 29 mph 1012.6mb 78f 78f
7:50am 5.5ft 6s 5s 25 29 mph 1013.1mb 78f 78f
6:50am 5.5ft 5s 4s 25 29 mph 1013.3mb 78f 78f
5:50am 5ft 5s 4s 25 29 mph 1013.7mb 78f 78f
4:50am 4.5ft 5s 4s 25 29 mph 1014.1mb 78f 78f
3:50am 4.5ft 5s 4s 22 25 mph 1014.9mb 78f 78f
2:50am 4ft 4s 4s 22 27 mph 1015mb 78f 78f
1:50am 3.5ft 4s 4s 20 25 mph 1014.8mb 78f 78f
12:50am 3.5ft 4s 4s 22 27 mph 1014.5mb 78f 78f
Thu 01/22 11:50pm 3ft 4s 3s 20 25 mph 1014.3mb 78f 78f
10:50pm 2.5ft 4s 3s 20 22 mph 1014.3mb 78f 77f
9:50pm 2.5ft 4s 3s 20 22 mph 1014.6mb 78f 77f
8:50pm 3ft 3s 3s 18 22 mph 1014.6mb 78f 76f
7:50pm 2.5ft 3s 3s 20 22 mph 1015.1mb 78f 76f